sensor_id;sensor_type;location;lat;lon;timestamp;P1;durP1;ratioP1;P2;durP2;ratioP2
22336;SDS011;14992;50.844;4.418;2023-09-08T00:01:02;7.72;;;6.93;;
22336;SDS011;14992;50.844;4.418;2023-09-08T00:03:34;8.18;;;6.97;;
22336;SDS011;14992;50.844;4.418;2023-09-08T00:06:03;9.55;;;7.18;;
22336;SDS011;14992;50.844;4.418;2023-09-08T00:08:32;7.30;;;6.60;;
22336;SDS011;14992;50.844;4.418;2023-09-08T00:11:01;7.03;;;6.32;;
22336;SDS011;14992;50.844;4.418;2023-09-08T00:13:31;8.50;;;6.80;;
22336;SDS011;14992;50.844;4.418;2023-09-08T00:16:00;8.25;;;6.90;;
22336;SDS011;14992;50.844;4.418;2023-09-08T00:18:29;8.20;;;6.60;;
22336;SDS011;14992;50.844;4.418;2023-09-08T00:21:00;7.70;;;6.97;;
22336;SDS011;14992;50.844;4.418;2023-09-08T00:23:29;6.50;;;5.82;;
22336;SDS011;14992;50.844;4.418;2023-09-08T00:25:58;6.97;;;6.28;;
22336;SDS011;14992;50.844;4.418;2023-09-08T00:28:27;9.77;;;6.35;;
22336;SDS011;14992;50.844;4.418;2023-09-08T00:30:56;7.82;;;6.70;;
22336;SDS011;14992;50.844;4.418;2023-09-08T00:33:26;9.65;;;5.93;;
22336;SDS011;14992;50.844;4.418;2023-09-08T00:35:55;6.82;;;6.13;;
22336;SDS011;14992;50.844;4.418;2023-09-08T00:38:27;9.20;;;5.72;;
22336;SDS011;14992;50.844;4.418;2023-09-08T00:40:56;7.20;;;6.13;;
22336;SDS011;14992;50.844;4.418;2023-09-08T00:43:26;6.30;;;5.68;;
22336;SDS011;14992;50.844;4.418;2023-09-08T00:45:55;6.68;;;5.20;;
22336;SDS011;14992;50.844;4.418;2023-09-08T00:48:26;6.22;;;5.63;;
22336;SDS011;14992;50.844;4.418;2023-09-08T00:50:55;11.20;;;6.28;;
22336;SDS011;14992;50.844;4.418;2023-09-08T00:53:26;7.53;;;5.97;;
22336;SDS011;14992;50.844;4.418;2023-09-08T00:55:55;9.77;;;6.22;;
22336;SDS011;14992;50.844;4.418;2023-09-08T00:58:25;7.47;;;6.72;;
22336;SDS011;14992;50.844;4.418;2023-09-08T01:00:54;6.95;;;6.05;;
22336;SDS011;14992;50.844;4.418;2023-09-08T01:03:24;10.95;;;6.53;;
22336;SDS011;14992;50.844;4.418;2023-09-08T01:05:54;9.48;;;6.40;;
22336;SDS011;14992;50.844;4.418;2023-09-08T01:08:24;7.10;;;6.38;;
22336;SDS011;14992;50.844;4.418;2023-09-08T01:10:55;9.05;;;6.40;;
22336;SDS011;14992;50.844;4.418;2023-09-08T01:13:24;9.13;;;6.07;;
22336;SDS011;14992;50.844;4.418;2023-09-08T01:15:53;6.68;;;5.97;;
22336;SDS011;14992;50.844;4.418;2023-09-08T01:18:22;9.18;;;6.50;;
22336;SDS011;14992;50.844;4.418;2023-09-08T01:23:58;6.68;;;6.00;;
22336;SDS011;14992;50.844;4.418;2023-09-08T01:26:41;7.65;;;6.35;;
22336;SDS011;14992;50.844;4.418;2023-09-08T01:29:10;7.85;;;7.05;;
22336;SDS011;14992;50.844;4.418;2023-09-08T01:31:40;8.18;;;7.03;;
22336;SDS011;14992;50.844;4.418;2023-09-08T01:34:09;6.70;;;6.00;;
22336;SDS011;14992;50.844;4.418;2023-09-08T01:36:40;8.25;;;6.60;;
22336;SDS011;14992;50.844;4.418;2023-09-08T01:39:09;7.38;;;6.68;;
22336;SDS011;14992;50.844;4.418;2023-09-08T01:41:38;7.88;;;6.05;;
22336;SDS011;14992;50.844;4.418;2023-09-08T01:44:08;6.70;;;6.03;;
22336;SDS011;14992;50.844;4.418;2023-09-08T01:46:39;7.93;;;6.03;;
22336;SDS011;14992;50.844;4.418;2023-09-08T01:49:08;7.65;;;6.45;;
22336;SDS011;14992;50.844;4.418;2023-09-08T01:51:37;7.75;;;6.22;;
22336;SDS011;14992;50.844;4.418;2023-09-08T01:54:06;6.50;;;5.80;;
22336;SDS011;14992;50.844;4.418;2023-09-08T01:56:37;6.82;;;6.22;;
22336;SDS011;14992;50.844;4.418;2023-09-08T01:59:08;9.32;;;5.70;;
22336;SDS011;14992;50.844;4.418;2023-09-08T02:01:36;5.78;;;5.07;;
22336;SDS011;14992;50.844;4.418;2023-09-08T02:04:07;6.97;;;6.28;;
22336;SDS011;14992;50.844;4.418;2023-09-08T02:06:36;8.70;;;7.03;;
22336;SDS011;14992;50.844;4.418;2023-09-08T02:09:05;7.72;;;6.93;;
22336;SDS011;14992;50.844;4.418;2023-09-08T02:11:36;7.68;;;6.78;;
22336;SDS011;14992;50.844;4.418;2023-09-08T02:14:05;7.43;;;6.03;;
22336;SDS011;14992;50.844;4.418;2023-09-08T02:16:37;6.90;;;6.20;;
22336;SDS011;14992;50.844;4.418;2023-09-08T02:19:07;6.93;;;5.50;;
22336;SDS011;14992;50.844;4.418;2023-09-08T02:21:36;7.72;;;6.47;;
22336;SDS011;14992;50.844;4.418;2023-09-08T02:24:05;6.65;;;5.95;;
22336;SDS011;14992;50.844;4.418;2023-09-08T02:26:35;7.20;;;6.50;;
22336;SDS011;14992;50.844;4.418;2023-09-08T02:29:05;8.07;;;6.53;;
22336;SDS011;14992;50.844;4.418;2023-09-08T02:31:36;10.68;;;6.90;;
22336;SDS011;14992;50.844;4.418;2023-09-08T02:34:06;8.05;;;6.22;;
22336;SDS011;14992;50.844;4.418;2023-09-08T02:36:35;7.38;;;6.55;;
22336;SDS011;14992;50.844;4.418;2023-09-08T02:39:04;7.32;;;6.63;;
22336;SDS011;14992;50.844;4.418;2023-09-08T02:41:34;7.10;;;5.70;;
22336;SDS011;14992;50.844;4.418;2023-09-08T02:44:03;6.35;;;5.85;;
22336;SDS011;14992;50.844;4.418;2023-09-08T02:46:32;6.40;;;5.80;;
22336;SDS011;14992;50.844;4.418;2023-09-08T02:49:03;6.25;;;5.75;;
22336;SDS011;14992;50.844;4.418;2023-09-08T02:51:32;6.70;;;6.10;;
22336;SDS011;14992;50.844;4.418;2023-09-08T02:54:01;7.68;;;6.32;;
22336;SDS011;14992;50.844;4.418;2023-09-08T02:56:30;8.38;;;6.25;;
22336;SDS011;14992;50.844;4.418;2023-09-08T02:58:58;7.43;;;6.50;;
22336;SDS011;14992;50.844;4.418;2023-09-08T03:01:27;6.85;;;5.95;;
22336;SDS011;14992;50.844;4.418;2023-09-08T03:03:57;7.97;;;7.07;;
22336;SDS011;14992;50.844;4.418;2023-09-08T03:06:27;7.55;;;6.40;;
22336;SDS011;14992;50.844;4.418;2023-09-08T03:08:58;6.85;;;6.15;;
22336;SDS011;14992;50.844;4.418;2023-09-08T03:11:27;6.30;;;5.68;;
22336;SDS011;14992;50.844;4.418;2023-09-08T03:13:56;7.38;;;5.85;;
22336;SDS011;14992;50.844;4.418;2023-09-08T03:16:26;7.80;;;6.97;;
22336;SDS011;14992;50.844;4.418;2023-09-08T03:18:55;8.80;;;6.80;;
22336;SDS011;14992;50.844;4.418;2023-09-08T03:21:24;9.02;;;7.32;;
22336;SDS011;14992;50.844;4.418;2023-09-08T03:23:54;8.95;;;6.93;;
22336;SDS011;14992;50.844;4.418;2023-09-08T03:26:23;10.70;;;7.15;;
22336;SDS011;14992;50.844;4.418;2023-09-08T03:28:52;9.35;;;7.35;;
22336;SDS011;14992;50.844;4.418;2023-09-08T03:31:21;8.55;;;7.72;;
22336;SDS011;14992;50.844;4.418;2023-09-08T03:33:50;8.45;;;7.38;;
22336;SDS011;14992;50.844;4.418;2023-09-08T03:36:20;9.02;;;7.38;;
22336;SDS011;14992;50.844;4.418;2023-09-08T03:38:48;9.38;;;6.90;;
22336;SDS011;14992;50.844;4.418;2023-09-08T03:41:19;7.88;;;7.00;;
22336;SDS011;14992;50.844;4.418;2023-09-08T03:43:48;8.05;;;7.25;;
22336;SDS011;14992;50.844;4.418;2023-09-08T03:46:17;8.45;;;7.07;;
22336;SDS011;14992;50.844;4.418;2023-09-08T03:48:46;8.48;;;7.10;;
22336;SDS011;14992;50.844;4.418;2023-09-08T03:51:15;7.80;;;6.38;;
22336;SDS011;14992;50.844;4.418;2023-09-08T03:53:43;7.97;;;6.68;;
22336;SDS011;14992;50.844;4.418;2023-09-08T03:56:13;8.27;;;7.40;;
22336;SDS011;14992;50.844;4.418;2023-09-08T03:58:43;8.75;;;7.10;;
22336;SDS011;14992;50.844;4.418;2023-09-08T04:01:12;10.25;;;6.78;;
22336;SDS011;14992;50.844;4.418;2023-09-08T04:03:41;8.43;;;7.13;;
22336;SDS011;14992;50.844;4.418;2023-09-08T04:06:11;8.27;;;7.32;;
22336;SDS011;14992;50.844;4.418;2023-09-08T04:08:39;8.98;;;7.63;;
22336;SDS011;14992;50.844;4.418;2023-09-08T04:11:08;9.35;;;7.35;;
22336;SDS011;14992;50.844;4.418;2023-09-08T04:13:37;11.60;;;7.43;;
22336;SDS011;14992;50.844;4.418;2023-09-08T04:16:07;9.20;;;7.13;;
22336;SDS011;14992;50.844;4.418;2023-09-08T04:18:37;8.45;;;7.45;;
22336;SDS011;14992;50.844;4.418;2023-09-08T04:21:06;10.50;;;7.22;;
22336;SDS011;14992;50.844;4.418;2023-09-08T04:23:35;10.23;;;8.23;;
22336;SDS011;14992;50.844;4.418;2023-09-08T04:26:04;8.77;;;7.25;;
22336;SDS011;14992;50.844;4.418;2023-09-08T04:28:33;11.20;;;8.38;;
22336;SDS011;14992;50.844;4.418;2023-09-08T04:31:02;12.25;;;7.95;;
22336;SDS011;14992;50.844;4.418;2023-09-08T04:33:33;9.52;;;7.70;;
22336;SDS011;14992;50.844;4.418;2023-09-08T04:36:02;9.93;;;7.97;;
22336;SDS011;14992;50.844;4.418;2023-09-08T04:38:31;9.25;;;7.40;;
22336;SDS011;14992;50.844;4.418;2023-09-08T04:41:00;11.57;;;8.65;;
22336;SDS011;14992;50.844;4.418;2023-09-08T04:43:29;9.23;;;7.57;;
22336;SDS011;14992;50.844;4.418;2023-09-08T04:45:59;9.45;;;7.15;;
22336;SDS011;14992;50.844;4.418;2023-09-08T04:48:30;9.68;;;7.47;;
22336;SDS011;14992;50.844;4.418;2023-09-08T04:51:00;9.20;;;7.28;;
22336;SDS011;14992;50.844;4.418;2023-09-08T04:53:29;10.98;;;8.25;;
22336;SDS011;14992;50.844;4.418;2023-09-08T04:56:00;9.80;;;7.63;;
22336;SDS011;14992;50.844;4.418;2023-09-08T04:58:30;9.13;;;7.80;;
22336;SDS011;14992;50.844;4.418;2023-09-08T05:01:00;10.23;;;7.47;;
22336;SDS011;14992;50.844;4.418;2023-09-08T05:03:29;9.15;;;7.72;;
22336;SDS011;14992;50.844;4.418;2023-09-08T05:05:58;7.72;;;6.93;;
22336;SDS011;14992;50.844;4.418;2023-09-08T05:08:29;9.20;;;6.90;;
22336;SDS011;14992;50.844;4.418;2023-09-08T05:10:58;7.32;;;6.60;;
22336;SDS011;14992;50.844;4.418;2023-09-08T05:13:28;8.98;;;7.45;;
22336;SDS011;14992;50.844;4.418;2023-09-08T05:16:00;8.00;;;6.93;;
22336;SDS011;14992;50.844;4.418;2023-09-08T05:18:42;9.25;;;6.93;;
22336;SDS011;14992;50.844;4.418;2023-09-08T05:21:13;8.68;;;7.03;;
22336;SDS011;14992;50.844;4.418;2023-09-08T05:23:42;8.50;;;6.50;;
22336;SDS011;14992;50.844;4.418;2023-09-08T05:26:11;7.82;;;7.03;;
22336;SDS011;14992;50.844;4.418;2023-09-08T05:28:40;9.80;;;7.25;;
22336;SDS011;14992;50.844;4.418;2023-09-08T05:31:11;13.13;;;8.02;;
22336;SDS011;14992;50.844;4.418;2023-09-08T05:33:40;9.10;;;7.55;;
22336;SDS011;14992;50.844;4.418;2023-09-08T05:36:10;9.10;;;7.95;;
22336;SDS011;14992;50.844;4.418;2023-09-08T05:38:44;10.68;;;7.70;;
22336;SDS011;14992;50.844;4.418;2023-09-08T05:41:13;11.88;;;8.23;;
22336;SDS011;14992;50.844;4.418;2023-09-08T05:43:42;10.82;;;7.55;;
22336;SDS011;14992;50.844;4.418;2023-09-08T05:46:11;9.93;;;7.38;;
22336;SDS011;14992;50.844;4.418;2023-09-08T05:48:41;8.23;;;7.30;;
22336;SDS011;14992;50.844;4.418;2023-09-08T05:51:10;9.98;;;7.28;;
22336;SDS011;14992;50.844;4.418;2023-09-08T05:53:39;12.07;;;7.32;;
22336;SDS011;14992;50.844;4.418;2023-09-08T05:56:10;8.93;;;6.65;;
22336;SDS011;14992;50.844;4.418;2023-09-08T05:58:41;11.48;;;7.80;;
22336;SDS011;14992;50.844;4.418;2023-09-08T06:01:10;8.20;;;7.20;;
22336;SDS011;14992;50.844;4.418;2023-09-08T06:03:39;12.30;;;8.23;;
22336;SDS011;14992;50.844;4.418;2023-09-08T06:06:08;8.90;;;6.85;;
22336;SDS011;14992;50.844;4.418;2023-09-08T06:08:37;11.68;;;6.90;;
22336;SDS011;14992;50.844;4.418;2023-09-08T06:11:06;8.60;;;7.22;;
22336;SDS011;14992;50.844;4.418;2023-09-08T06:13:37;8.23;;;6.90;;
22336;SDS011;14992;50.844;4.418;2023-09-08T06:16:05;8.05;;;6.65;;
22336;SDS011;14992;50.844;4.418;2023-09-08T06:18:35;9.43;;;6.88;;
22336;SDS011;14992;50.844;4.418;2023-09-08T06:21:10;13.52;;;8.05;;
22336;SDS011;14992;50.844;4.418;2023-09-08T06:23:39;8.82;;;7.65;;
22336;SDS011;14992;50.844;4.418;2023-09-08T06:26:08;9.40;;;7.32;;
22336;SDS011;14992;50.844;4.418;2023-09-08T06:28:39;10.23;;;8.48;;
22336;SDS011;14992;50.844;4.418;2023-09-08T06:31:10;10.05;;;7.53;;
22336;SDS011;14992;50.844;4.418;2023-09-08T06:33:42;8.07;;;7.15;;
22336;SDS011;14992;50.844;4.418;2023-09-08T06:36:11;9.98;;;6.90;;
22336;SDS011;14992;50.844;4.418;2023-09-08T06:38:40;9.93;;;7.45;;
22336;SDS011;14992;50.844;4.418;2023-09-08T06:41:10;11.13;;;7.63;;
22336;SDS011;14992;50.844;4.418;2023-09-08T06:43:42;11.30;;;8.23;;
22336;SDS011;14992;50.844;4.418;2023-09-08T06:46:15;9.38;;;7.95;;
22336;SDS011;14992;50.844;4.418;2023-09-08T06:48:45;12.65;;;8.55;;
22336;SDS011;14992;50.844;4.418;2023-09-08T06:51:14;9.52;;;7.47;;
22336;SDS011;14992;50.844;4.418;2023-09-08T06:53:43;9.20;;;7.15;;
22336;SDS011;14992;50.844;4.418;2023-09-08T06:56:12;7.88;;;7.07;;
22336;SDS011;14992;50.844;4.418;2023-09-08T06:58:42;12.40;;;7.50;;
22336;SDS011;14992;50.844;4.418;2023-09-08T07:01:12;9.10;;;7.65;;
22336;SDS011;14992;50.844;4.418;2023-09-08T07:03:41;12.85;;;8.38;;
22336;SDS011;14992;50.844;4.418;2023-09-08T07:06:12;10.77;;;7.55;;
22336;SDS011;14992;50.844;4.418;2023-09-08T07:08:41;9.98;;;7.93;;
22336;SDS011;14992;50.844;4.418;2023-09-08T07:11:09;14.15;;;7.80;;
22336;SDS011;14992;50.844;4.418;2023-09-08T07:13:43;9.68;;;7.07;;
22336;SDS011;14992;50.844;4.418;2023-09-08T07:16:12;9.43;;;7.22;;
22336;SDS011;14992;50.844;4.418;2023-09-08T07:18:42;13.70;;;9.35;;
22336;SDS011;14992;50.844;4.418;2023-09-08T07:21:11;10.65;;;7.72;;
22336;SDS011;14992;50.844;4.418;2023-09-08T07:23:40;10.25;;;7.22;;
22336;SDS011;14992;50.844;4.418;2023-09-08T07:26:11;11.88;;;7.75;;
22336;SDS011;14992;50.844;4.418;2023-09-08T07:28:42;14.27;;;8.45;;
22336;SDS011;14992;50.844;4.418;2023-09-08T07:31:14;9.40;;;7.30;;
22336;SDS011;14992;50.844;4.418;2023-09-08T07:33:47;11.43;;;8.02;;
22336;SDS011;14992;50.844;4.418;2023-09-08T07:36:16;8.57;;;7.50;;
22336;SDS011;14992;50.844;4.418;2023-09-08T07:38:45;9.27;;;7.88;;
22336;SDS011;14992;50.844;4.418;2023-09-08T07:41:15;10.57;;;7.90;;
22336;SDS011;14992;50.844;4.418;2023-09-08T07:43:45;10.77;;;7.10;;
22336;SDS011;14992;50.844;4.418;2023-09-08T07:46:19;11.48;;;9.00;;
22336;SDS011;14992;50.844;4.418;2023-09-08T07:48:48;10.38;;;7.15;;
22336;SDS011;14992;50.844;4.418;2023-09-08T07:51:17;8.05;;;6.90;;
22336;SDS011;14992;50.844;4.418;2023-09-08T07:53:46;8.15;;;6.40;;
22336;SDS011;14992;50.844;4.418;2023-09-08T07:56:15;8.80;;;7.10;;
22336;SDS011;14992;50.844;4.418;2023-09-08T07:58:45;8.15;;;7.35;;
22336;SDS011;14992;50.844;4.418;2023-09-08T08:01:14;10.25;;;7.22;;
22336;SDS011;14992;50.844;4.418;2023-09-08T08:03:43;8.52;;;7.18;;
22336;SDS011;14992;50.844;4.418;2023-09-08T08:06:13;7.85;;;7.05;;
22336;SDS011;14992;50.844;4.418;2023-09-08T08:08:42;9.43;;;7.05;;
22336;SDS011;14992;50.844;4.418;2023-09-08T08:11:11;8.82;;;7.60;;
22336;SDS011;14992;50.844;4.418;2023-09-08T08:13:41;8.18;;;6.40;;
22336;SDS011;14992;50.844;4.418;2023-09-08T08:16:11;8.38;;;6.80;;
22336;SDS011;14992;50.844;4.418;2023-09-08T08:18:40;9.25;;;6.35;;
22336;SDS011;14992;50.844;4.418;2023-09-08T08:21:09;8.85;;;6.55;;
22336;SDS011;14992;50.844;4.418;2023-09-08T08:23:38;8.55;;;6.85;;
22336;SDS011;14992;50.844;4.418;2023-09-08T08:26:07;8.27;;;6.53;;
22336;SDS011;14992;50.844;4.418;2023-09-08T08:28:36;9.10;;;7.07;;
22336;SDS011;14992;50.844;4.418;2023-09-08T08:31:05;9.82;;;7.57;;
22336;SDS011;14992;50.844;4.418;2023-09-08T08:33:35;10.10;;;6.20;;
22336;SDS011;14992;50.844;4.418;2023-09-08T08:36:04;8.82;;;7.35;;
22336;SDS011;14992;50.844;4.418;2023-09-08T08:38:34;10.45;;;7.32;;
22336;SDS011;14992;50.844;4.418;2023-09-08T08:41:03;10.85;;;6.55;;
22336;SDS011;14992;50.844;4.418;2023-09-08T08:43:32;11.60;;;6.55;;
22336;SDS011;14992;50.844;4.418;2023-09-08T08:46:02;8.57;;;7.15;;
22336;SDS011;14992;50.844;4.418;2023-09-08T08:48:32;10.48;;;6.47;;
22336;SDS011;14992;50.844;4.418;2023-09-08T08:51:03;10.18;;;6.78;;
22336;SDS011;14992;50.844;4.418;2023-09-08T08:53:33;10.88;;;6.40;;
22336;SDS011;14992;50.844;4.418;2023-09-08T08:56:04;9.50;;;7.50;;
22336;SDS011;14992;50.844;4.418;2023-09-08T08:58:36;10.32;;;6.60;;
22336;SDS011;14992;50.844;4.418;2023-09-08T09:01:07;7.28;;;6.20;;
22336;SDS011;14992;50.844;4.418;2023-09-08T09:03:38;9.15;;;7.15;;
22336;SDS011;14992;50.844;4.418;2023-09-08T09:06:10;10.60;;;6.72;;
22336;SDS011;14992;50.844;4.418;2023-09-08T09:08:39;7.82;;;6.97;;
22336;SDS011;14992;50.844;4.418;2023-09-08T09:11:10;11.07;;;6.82;;
22336;SDS011;14992;50.844;4.418;2023-09-08T09:13:39;9.05;;;6.55;;
22336;SDS011;14992;50.844;4.418;2023-09-08T09:16:07;8.07;;;6.88;;
22336;SDS011;14992;50.844;4.418;2023-09-08T09:18:52;9.88;;;7.25;;
22336;SDS011;14992;50.844;4.418;2023-09-08T09:21:24;10.93;;;7.70;;
22336;SDS011;14992;50.844;4.418;2023-09-08T09:24:13;8.82;;;6.70;;
22336;SDS011;14992;50.844;4.418;2023-09-08T09:26:46;11.23;;;6.78;;
22336;SDS011;14992;50.844;4.418;2023-09-08T09:29:19;7.90;;;6.13;;
22336;SDS011;14992;50.844;4.418;2023-09-08T09:31:51;10.63;;;7.57;;
22336;SDS011;14992;50.844;4.418;2023-09-08T09:34:21;8.70;;;5.95;;
22336;SDS011;14992;50.844;4.418;2023-09-08T09:36:52;11.07;;;6.60;;
22336;SDS011;14992;50.844;4.418;2023-09-08T09:39:21;9.82;;;6.35;;
22336;SDS011;14992;50.844;4.418;2023-09-08T09:41:53;8.88;;;6.45;;
22336;SDS011;14992;50.844;4.418;2023-09-08T09:44:22;7.93;;;5.80;;
22336;SDS011;14992;50.844;4.418;2023-09-08T09:46:53;9.57;;;6.50;;
22336;SDS011;14992;50.844;4.418;2023-09-08T09:49:22;10.07;;;6.78;;
22336;SDS011;14992;50.844;4.418;2023-09-08T09:51:55;8.88;;;5.90;;
22336;SDS011;14992;50.844;4.418;2023-09-08T09:54:25;7.22;;;6.43;;
22336;SDS011;14992;50.844;4.418;2023-09-08T09:56:56;8.10;;;6.20;;
22336;SDS011;14992;50.844;4.418;2023-09-08T09:59:25;7.28;;;6.45;;
22336;SDS011;14992;50.844;4.418;2023-09-08T10:01:54;8.73;;;5.50;;
22336;SDS011;14992;50.844;4.418;2023-09-08T10:04:23;6.60;;;5.95;;
22336;SDS011;14992;50.844;4.418;2023-09-08T10:06:54;8.30;;;5.90;;
22336;SDS011;14992;50.844;4.418;2023-09-08T10:09:24;7.90;;;5.82;;
22336;SDS011;14992;50.844;4.418;2023-09-08T10:11:53;7.65;;;5.57;;
22336;SDS011;14992;50.844;4.418;2023-09-08T10:14:25;7.05;;;6.13;;
22336;SDS011;14992;50.844;4.418;2023-09-08T10:16:59;6.95;;;5.90;;
22336;SDS011;14992;50.844;4.418;2023-09-08T10:19:29;6.97;;;5.47;;
22336;SDS011;14992;50.844;4.418;2023-09-08T10:22:00;8.30;;;5.47;;
22336;SDS011;14992;50.844;4.418;2023-09-08T10:24:32;6.43;;;5.70;;
22336;SDS011;14992;50.844;4.418;2023-09-08T10:27:03;7.35;;;5.25;;
22336;SDS011;14992;50.844;4.418;2023-09-08T10:29:36;7.20;;;5.10;;
22336;SDS011;14992;50.844;4.418;2023-09-08T10:32:06;6.68;;;5.70;;
22336;SDS011;14992;50.844;4.418;2023-09-08T10:34:37;6.93;;;5.60;;
22336;SDS011;14992;50.844;4.418;2023-09-08T10:37:18;6.13;;;5.05;;
22336;SDS011;14992;50.844;4.418;2023-09-08T10:39:48;7.18;;;5.22;;
22336;SDS011;14992;50.844;4.418;2023-09-08T10:42:23;7.28;;;5.30;;
22336;SDS011;14992;50.844;4.418;2023-09-08T10:44:56;6.80;;;3.95;;
22336;SDS011;14992;50.844;4.418;2023-09-08T10:47:31;7.82;;;4.10;;
22336;SDS011;14992;50.844;4.418;2023-09-08T10:50:04;6.35;;;4.50;;
22336;SDS011;14992;50.844;4.418;2023-09-08T10:52:37;8.75;;;4.78;;
22336;SDS011;14992;50.844;4.418;2023-09-08T10:55:07;11.40;;;5.75;;
22336;SDS011;14992;50.844;4.418;2023-09-08T10:57:36;7.30;;;4.72;;
22336;SDS011;14992;50.844;4.418;2023-09-08T11:00:06;8.68;;;5.28;;
22336;SDS011;14992;50.844;4.418;2023-09-08T11:02:40;5.10;;;4.65;;
22336;SDS011;14992;50.844;4.418;2023-09-08T11:05:18;9.85;;;5.00;;
22336;SDS011;14992;50.844;4.418;2023-09-08T11:07:49;10.18;;;4.70;;
22336;SDS011;14992;50.844;4.418;2023-09-08T11:10:19;7.28;;;4.82;;
22336;SDS011;14992;50.844;4.418;2023-09-08T11:12:48;5.15;;;4.32;;
22336;SDS011;14992;50.844;4.418;2023-09-08T11:15:19;5.90;;;4.13;;
22336;SDS011;14992;50.844;4.418;2023-09-08T11:17:48;7.15;;;4.63;;
22336;SDS011;14992;50.844;4.418;2023-09-08T11:20:25;7.35;;;4.60;;
22336;SDS011;14992;50.844;4.418;2023-09-08T11:22:57;6.57;;;4.13;;
22336;SDS011;14992;50.844;4.418;2023-09-08T11:25:26;13.05;;;5.07;;
22336;SDS011;14992;50.844;4.418;2023-09-08T11:27:56;6.40;;;4.53;;
22336;SDS011;14992;50.844;4.418;2023-09-08T11:30:26;4.65;;;3.83;;
22336;SDS011;14992;50.844;4.418;2023-09-08T11:32:55;6.15;;;4.00;;
22336;SDS011;14992;50.844;4.418;2023-09-08T11:35:26;8.57;;;4.28;;
22336;SDS011;14992;50.844;4.418;2023-09-08T11:38:01;6.68;;;3.75;;
22336;SDS011;14992;50.844;4.418;2023-09-08T11:40:31;7.22;;;4.20;;
22336;SDS011;14992;50.844;4.418;2023-09-08T11:43:05;5.15;;;4.65;;
22336;SDS011;14992;50.844;4.418;2023-09-08T11:45:34;5.13;;;3.90;;
22336;SDS011;14992;50.844;4.418;2023-09-08T11:48:04;5.82;;;4.10;;
22336;SDS011;14992;50.844;4.418;2023-09-08T11:50:33;5.28;;;4.45;;
22336;SDS011;14992;50.844;4.418;2023-09-08T11:53:03;6.07;;;4.18;;
22336;SDS011;14992;50.844;4.418;2023-09-08T11:55:33;5.82;;;3.85;;
22336;SDS011;14992;50.844;4.418;2023-09-08T11:58:03;7.38;;;4.32;;
22336;SDS011;14992;50.844;4.418;2023-09-08T12:00:33;6.97;;;3.72;;
22336;SDS011;14992;50.844;4.418;2023-09-08T12:03:11;6.38;;;3.50;;
22336;SDS011;14992;50.844;4.418;2023-09-08T12:05:41;8.20;;;4.07;;
22336;SDS011;14992;50.844;4.418;2023-09-08T12:08:13;7.80;;;4.20;;
22336;SDS011;14992;50.844;4.418;2023-09-08T12:10:42;7.57;;;3.83;;
22336;SDS011;14992;50.844;4.418;2023-09-08T12:13:11;7.32;;;3.83;;
22336;SDS011;14992;50.844;4.418;2023-09-08T12:15:41;8.48;;;4.18;;
22336;SDS011;14992;50.844;4.418;2023-09-08T12:18:11;9.82;;;3.80;;
22336;SDS011;14992;50.844;4.418;2023-09-08T12:20:45;11.70;;;4.95;;
22336;SDS011;14992;50.844;4.418;2023-09-08T12:23:19;8.55;;;4.60;;
22336;SDS011;14992;50.844;4.418;2023-09-08T12:25:49;5.15;;;4.20;;
22336;SDS011;14992;50.844;4.418;2023-09-08T12:28:19;8.98;;;5.63;;
22336;SDS011;14992;50.844;4.418;2023-09-08T12:30:49;9.85;;;4.45;;
22336;SDS011;14992;50.844;4.418;2023-09-08T12:33:20;8.55;;;4.28;;
22336;SDS011;14992;50.844;4.418;2023-09-08T12:35:49;7.00;;;4.03;;
22336;SDS011;14992;50.844;4.418;2023-09-08T12:38:21;5.47;;;4.07;;
22336;SDS011;14992;50.844;4.418;2023-09-08T12:40:50;8.38;;;5.28;;
22336;SDS011;14992;50.844;4.418;2023-09-08T12:43:19;9.88;;;6.05;;
22336;SDS011;14992;50.844;4.418;2023-09-08T12:45:54;8.90;;;4.88;;
22336;SDS011;14992;50.844;4.418;2023-09-08T12:48:23;7.00;;;4.15;;
22336;SDS011;14992;50.844;4.418;2023-09-08T12:50:52;6.53;;;4.60;;
22336;SDS011;14992;50.844;4.418;2023-09-08T12:53:24;4.28;;;3.88;;
22336;SDS011;14992;50.844;4.418;2023-09-08T12:55:53;7.40;;;4.70;;
22336;SDS011;14992;50.844;4.418;2023-09-08T12:58:22;7.75;;;4.13;;
22336;SDS011;14992;50.844;4.418;2023-09-08T13:00:51;5.97;;;3.97;;
22336;SDS011;14992;50.844;4.418;2023-09-08T13:03:19;8.25;;;3.90;;
22336;SDS011;14992;50.844;4.418;2023-09-08T13:05:48;4.50;;;3.45;;
22336;SDS011;14992;50.844;4.418;2023-09-08T13:08:17;6.90;;;3.88;;
22336;SDS011;14992;50.844;4.418;2023-09-08T13:10:47;10.65;;;4.18;;
22336;SDS011;14992;50.844;4.418;2023-09-08T13:13:16;8.27;;;4.25;;
22336;SDS011;14992;50.844;4.418;2023-09-08T13:15:45;8.55;;;4.72;;
22336;SDS011;14992;50.844;4.418;2023-09-08T13:18:14;6.22;;;4.55;;
22336;SDS011;14992;50.844;4.418;2023-09-08T13:20:43;7.82;;;3.95;;
22336;SDS011;14992;50.844;4.418;2023-09-08T13:23:12;6.60;;;5.00;;
22336;SDS011;14992;50.844;4.418;2023-09-08T13:25:40;9.00;;;4.05;;
22336;SDS011;14992;50.844;4.418;2023-09-08T13:28:13;9.68;;;4.30;;
22336;SDS011;14992;50.844;4.418;2023-09-08T13:30:41;15.07;;;7.40;;
22336;SDS011;14992;50.844;4.418;2023-09-08T13:33:10;13.18;;;6.60;;
22336;SDS011;14992;50.844;4.418;2023-09-08T13:35:39;11.82;;;5.45;;
22336;SDS011;14992;50.844;4.418;2023-09-08T13:38:08;10.23;;;4.40;;
22336;SDS011;14992;50.844;4.418;2023-09-08T13:40:37;7.43;;;4.15;;
22336;SDS011;14992;50.844;4.418;2023-09-08T13:43:06;12.02;;;4.20;;
22336;SDS011;14992;50.844;4.418;2023-09-08T13:45:38;15.60;;;4.10;;
22336;SDS011;14992;50.844;4.418;2023-09-08T13:48:09;8.75;;;4.25;;
22336;SDS011;14992;50.844;4.418;2023-09-08T13:50:39;13.20;;;3.90;;
22336;SDS011;14992;50.844;4.418;2023-09-08T13:55:41;10.77;;;4.10;;
22336;SDS011;14992;50.844;4.418;2023-09-08T13:58:11;7.30;;;3.90;;
22336;SDS011;14992;50.844;4.418;2023-09-08T14:00:42;10.63;;;4.43;;
22336;SDS011;14992;50.844;4.418;2023-09-08T14:03:13;9.38;;;4.68;;
22336;SDS011;14992;50.844;4.418;2023-09-08T14:05:48;16.27;;;4.57;;
22336;SDS011;14992;50.844;4.418;2023-09-08T14:08:21;9.93;;;4.78;;
22336;SDS011;14992;50.844;4.418;2023-09-08T14:10:52;14.95;;;5.15;;
22336;SDS011;14992;50.844;4.418;2023-09-08T14:13:31;15.23;;;4.63;;
22336;SDS011;14992;50.844;4.418;2023-09-08T14:16:02;12.32;;;4.55;;
22336;SDS011;14992;50.844;4.418;2023-09-08T14:18:31;8.48;;;4.65;;
22336;SDS011;14992;50.844;4.418;2023-09-08T14:21:01;14.23;;;4.80;;
22336;SDS011;14992;50.844;4.418;2023-09-08T14:23:31;9.98;;;4.80;;
22336;SDS011;14992;50.844;4.418;2023-09-08T14:26:01;12.30;;;5.10;;
22336;SDS011;14992;50.844;4.418;2023-09-08T14:28:30;13.23;;;5.03;;
22336;SDS011;14992;50.844;4.418;2023-09-08T14:31:00;12.25;;;4.38;;
22336;SDS011;14992;50.844;4.418;2023-09-08T14:33:31;11.43;;;4.47;;
22336;SDS011;14992;50.844;4.418;2023-09-08T14:36:01;16.65;;;5.13;;
22336;SDS011;14992;50.844;4.418;2023-09-08T14:38:30;11.75;;;4.45;;
22336;SDS011;14992;50.844;4.418;2023-09-08T14:41:00;15.68;;;5.53;;
22336;SDS011;14992;50.844;4.418;2023-09-08T14:43:29;16.58;;;5.15;;
22336;SDS011;14992;50.844;4.418;2023-09-08T14:45:59;13.00;;;5.40;;
22336;SDS011;14992;50.844;4.418;2023-09-08T14:48:31;16.88;;;5.07;;
22336;SDS011;14992;50.844;4.418;2023-09-08T14:51:00;15.18;;;5.30;;
22336;SDS011;14992;50.844;4.418;2023-09-08T14:53:30;13.90;;;4.93;;
22336;SDS011;14992;50.844;4.418;2023-09-08T14:56:00;10.55;;;4.50;;
22336;SDS011;14992;50.844;4.418;2023-09-08T14:58:30;12.73;;;4.50;;
22336;SDS011;14992;50.844;4.418;2023-09-08T15:01:01;12.88;;;5.03;;
22336;SDS011;14992;50.844;4.418;2023-09-08T15:03:35;13.43;;;4.90;;
22336;SDS011;14992;50.844;4.418;2023-09-08T15:06:05;11.40;;;4.80;;